Time;durP1;ratioP1;P1;durP2;ratioP2;P2;SDS_P1;SDS_P2;PMS_P1;PMS_P2;Temp;Humidity;BMP_temperature;BMP_pressure;BME280_temperature;BME280_humidity;BME280_pressure;Samples;Min_cycle;Max_cycle;Signal;HPM_P1;HPM_P2
2022/10/20 00:01:53;;;;;;;12.10;10.13;;;9.90;99.90;;;;;;10433463;28;20249;-75
2022/10/20 00:06:54;;;;;;;14.53;10.10;;;9.90;99.90;;;;;;10431350;28;20269;-75
2022/10/20 00:11:54;;;;;;;13.60;10.67;;;9.80;99.90;;;;;;10434077;28;20284;-75
2022/10/20 00:16:55;;;;;;;18.23;10.13;;;9.80;99.90;;;;;;10437474;28;20665;-75
2022/10/20 00:21:56;;;;;;;12.87;10.07;;;9.70;99.90;;;;;;10439627;28;20301;-76
2022/10/20 00:26:56;;;;;;;10.57;9.33;;;9.60;99.90;;;;;;10425454;28;20227;-77
2022/10/20 00:31:57;;;;;;;15.07;9.27;;;9.50;99.90;;;;;;10444761;28;20233;-77
2022/10/20 00:36:57;;;;;;;10.83;8.80;;;9.40;99.90;;;;;;10440385;28;20225;-76
2022/10/20 00:42:01;;;;;;;14.93;8.83;;;9.40;99.90;;;;;;10427902;28;20277;-76
2022/10/20 00:47:02;;;;;;;12.23;8.93;;;9.40;99.90;;;;;;10429786;28;20876;-73
2022/10/20 00:52:03;;;;;;;14.77;10.07;;;9.40;99.90;;;;;;10433276;28;20318;-75
2022/10/20 00:57:04;;;;;;;13.37;8.77;;;9.40;99.90;;;;;;10430834;28;20684;-74
2022/10/20 01:02:08;;;;;;;10.50;9.10;;;9.40;99.90;;;;;;10433910;28;20277;-73
2022/10/20 01:07:08;;;;;;;12.33;8.83;;;9.40;99.90;;;;;;10433088;28;20264;-73
2022/10/20 01:12:14;;;;;;;11.67;8.97;;;9.40;99.90;;;;;;10446439;28;20324;-74
2022/10/20 01:17:36;;;;;;;14.53;8.77;;;9.50;99.90;;;;;;10438257;28;20221;-74
2022/10/20 01:23:00;;;;;;;11.77;9.13;;;9.40;99.90;;;;;;10438272;28;20221;-73
2022/10/20 01:28:48;;;;;;;13.10;9.07;;;9.40;99.90;;;;;;10443695;28;20686;-72
2022/10/20 01:34:08;;;;;;;12.90;8.90;;;9.40;99.90;;;;;;10433643;28;20258;-73
2022/10/20 01:39:16;;;;;;;17.07;9.00;;;9.40;99.90;;;;;;10442090;28;20724;-73
2022/10/20 01:44:19;;;;;;;16.70;8.60;;;9.40;99.90;;;;;;10435586;28;20263;-74
2022/10/20 01:49:22;;;;;;;11.13;8.70;;;9.40;99.90;;;;;;10443808;28;20300;-73
2022/10/20 01:54:25;;;;;;;11.23;8.63;;;9.40;99.90;;;;;;10442209;28;20233;-74
2022/10/20 01:59:32;;;;;;;13.33;9.67;;;9.40;99.90;;;;;;10430554;28;20227;-75
2022/10/20 02:05:04;;;;;;;12.63;8.73;;;9.40;99.90;;;;;;10432373;28;20596;-72
2022/10/20 02:10:21;;;;;;;12.90;8.17;;;9.40;99.90;;;;;;10427650;28;20236;-72
2022/10/20 02:15:27;;;;;;;16.13;8.73;;;9.40;99.90;;;;;;10432898;28;20700;-73
2022/10/20 02:20:30;;;;;;;9.90;8.90;;;9.30;99.90;;;;;;10393750;28;20232;-72
2022/10/20 02:25:32;;;;;;;13.63;9.00;;;9.30;99.90;;;;;;10404804;28;20224;-71
2022/10/20 02:30:34;;;;;;;15.60;9.53;;;9.30;99.90;;;;;;10432361;28;20287;-71
2022/10/20 02:35:34;;;;;;;17.20;10.17;;;9.30;99.90;;;;;;10422179;28;20227;-73
2022/10/20 02:40:35;;;;;;;15.10;9.20;;;9.40;99.90;;;;;;10394935;28;20230;-72
2022/10/20 02:45:36;;;;;;;12.40;9.00;;;9.40;99.90;;;;;;10394009;28;20234;-73
2022/10/20 02:50:36;;;;;;;12.73;8.77;;;9.40;99.90;;;;;;10393174;28;20289;-71
2022/10/20 02:55:37;;;;;;;13.20;8.73;;;9.50;99.90;;;;;;10392505;28;20754;-74
2022/10/20 03:00:38;;;;;;;15.70;9.17;;;9.50;99.90;;;;;;10400275;28;20258;-75
2022/10/20 03:05:40;;;;;;;12.77;9.10;;;9.50;99.90;;;;;;10394418;28;20236;-74
2022/10/20 03:10:41;;;;;;;9.57;8.47;;;9.50;99.90;;;;;;10398866;28;20258;-73
2022/10/20 03:15:42;;;;;;;14.17;9.00;;;9.50;99.90;;;;;;10408480;28;20279;-75
2022/10/20 03:20:43;;;;;;;14.50;9.60;;;9.50;99.90;;;;;;10434921;28;20217;-75
2022/10/20 03:25:43;;;;;;;15.73;8.43;;;9.40;99.90;;;;;;10425982;28;20221;-75
2022/10/20 03:30:45;;;;;;;14.63;9.33;;;9.40;99.90;;;;;;10434074;28;20233;-74
2022/10/20 03:35:46;;;;;;;10.47;9.30;;;9.30;99.90;;;;;;10430101;28;20459;-73
2022/10/20 03:40:47;;;;;;;13.43;9.60;;;9.30;99.90;;;;;;10427632;28;20231;-73
2022/10/20 03:45:47;;;;;;;11.60;8.97;;;9.30;99.90;;;;;;10442041;28;20610;-74
2022/10/20 03:50:51;;;;;;;12.93;9.53;;;9.30;99.90;;;;;;10430797;28;20254;-74
2022/10/20 03:55:51;;;;;;;13.20;9.67;;;9.30;99.90;;;;;;10440379;28;20260;-74
2022/10/20 04:00:52;;;;;;;16.10;9.17;;;9.30;99.90;;;;;;10436616;28;20232;-74
2022/10/20 04:05:53;;;;;;;14.80;9.80;;;9.30;99.90;;;;;;10432043;28;20236;-72
2022/10/20 04:10:54;;;;;;;15.93;9.97;;;9.40;99.90;;;;;;10431901;28;20238;-73
2022/10/20 04:15:54;;;;;;;13.97;10.20;;;9.40;99.90;;;;;;10438948;28;20321;-72
2022/10/20 04:20:55;;;;;;;12.67;9.70;;;9.40;99.90;;;;;;10434588;28;20270;-73
2022/10/20 04:25:55;;;;;;;12.47;9.83;;;9.50;99.90;;;;;;10437078;28;20656;-72
2022/10/20 04:30:59;;;;;;;12.00;10.40;;;9.50;99.90;;;;;;10434443;28;20237;-72
2022/10/20 04:36:11;;;;;;;15.67;10.17;;;9.50;99.90;;;;;;10430137;28;20281;-70
2022/10/20 04:41:12;;;;;;;16.33;10.73;;;9.50;99.90;;;;;;10430250;28;20310;-75
2022/10/20 04:46:13;;;;;;;15.93;11.27;;;9.50;99.90;;;;;;10437581;28;20309;-73
2022/10/20 04:51:15;;;;;;;18.80;10.90;;;9.50;99.90;;;;;;10438229;28;20268;-73
2022/10/20 04:56:20;;;;;;;13.90;11.30;;;9.40;99.90;;;;;;10430825;28;20254;-71
2022/10/20 05:01:23;;;;;;;16.87;11.27;;;9.40;99.90;;;;;;10441739;28;21471;-73
2022/10/20 05:06:26;;;;;;;21.40;12.37;;;9.50;99.90;;;;;;10435037;28;20235;-74
2022/10/20 05:11:28;;;;;;;15.50;11.53;;;9.50;99.90;;;;;;10445747;28;20232;-74
2022/10/20 05:16:29;;;;;;;16.23;11.60;;;9.50;99.90;;;;;;10449523;28;20264;-74
2022/10/20 05:21:30;;;;;;;20.23;12.10;;;9.60;99.90;;;;;;10444658;28;20228;-73
2022/10/20 05:26:35;;;;;;;16.50;12.33;;;9.70;99.90;;;;;;10442053;28;20265;-74
2022/10/20 05:31:37;;;;;;;16.47;12.43;;;9.80;99.90;;;;;;10446914;28;20773;-73
2022/10/20 05:36:38;;;;;;;13.03;11.70;;;9.90;99.90;;;;;;10446996;28;20230;-72
2022/10/20 05:41:39;;;;;;;18.13;12.93;;;9.90;99.90;;;;;;10432539;28;20230;-78
2022/10/20 05:46:41;;;;;;;21.07;13.37;;;10.00;99.90;;;;;;10451535;28;20221;-75
2022/10/20 05:51:43;;;;;;;21.93;13.20;;;10.00;99.90;;;;;;10447217;28;20222;-75
2022/10/20 05:56:44;;;;;;;18.93;14.87;;;10.00;99.90;;;;;;10450481;28;20360;-79
2022/10/20 06:01:47;;;;;;;16.03;14.13;;;10.10;99.90;;;;;;10439694;28;20272;-74
2022/10/20 06:06:49;;;;;;;18.73;15.30;;;10.00;99.90;;;;;;10441730;28;20250;-72
2022/10/20 06:11:50;;;;;;;15.60;13.90;;;10.00;99.90;;;;;;10434428;28;20633;-69
2022/10/20 06:16:52;;;;;;;19.97;14.47;;;10.10;99.90;;;;;;10443953;28;20209;-67
2022/10/20 06:21:53;;;;;;;18.83;13.70;;;10.20;99.90;;;;;;10437167;28;20227;-69
2022/10/20 06:26:56;;;;;;;18.83;14.03;;;10.30;99.90;;;;;;10442248;28;20226;-69
2022/10/20 06:31:57;;;;;;;16.80;13.50;;;10.40;99.90;;;;;;10429475;28;20330;-69
2022/10/20 06:36:58;;;;;;;17.53;14.10;;;10.50;99.90;;;;;;10442928;28;20834;-69
2022/10/20 06:41:58;;;;;;;21.30;12.87;;;10.50;99.90;;;;;;10446835;28;20299;-73
2022/10/20 06:46:59;;;;;;;16.43;14.07;;;10.70;99.90;;;;;;10448342;28;20227;-74
2022/10/20 06:51:59;;;;;;;17.53;14.50;;;10.70;99.90;;;;;;10445319;28;20219;-74
2022/10/20 06:57:00;;;;;;;17.00;13.50;;;10.90;99.90;;;;;;10449537;28;20225;-75
2022/10/20 07:02:01;;;;;;;18.57;14.70;;;11.10;99.90;;;;;;10447628;28;20593;-74
2022/10/20 07:07:01;;;;;;;16.90;12.97;;;11.60;99.90;;;;;;10441342;28;20561;-75
2022/10/20 07:12:02;;;;;;;19.67;14.00;;;12.20;99.90;;;;;;10446933;28;20245;-69
2022/10/20 07:17:03;;;;;;;15.23;12.33;;;12.30;99.90;;;;;;10443143;28;20223;-69
2022/10/20 07:22:03;;;;;;;14.87;11.97;;;12.60;99.90;;;;;;10448110;28;20304;-69
2022/10/20 07:27:04;;;;;;;17.57;12.10;;;12.90;99.90;;;;;;10444240;28;20256;-69
2022/10/20 07:32:05;;;;;;;15.60;11.00;;;13.20;99.90;;;;;;10444879;28;20230;-69
2022/10/20 07:37:05;;;;;;;16.03;12.17;;;14.10;99.90;;;;;;10444604;28;20702;-68
2022/10/20 07:42:06;;;;;;;19.53;11.67;;;13.90;99.90;;;;;;10447096;28;20227;-74
2022/10/20 07:47:06;;;;;;;14.53;12.17;;;13.60;99.90;;;;;;10444270;28;20221;-74
2022/10/20 07:52:07;;;;;;;14.27;12.40;;;13.10;99.90;;;;;;10443308;28;20769;-73
2022/10/20 07:57:07;;;;;;;16.87;12.67;;;13.00;99.90;;;;;;10438990;28;20269;-74
2022/10/20 08:02:10;;;;;;;16.37;11.90;;;13.60;99.90;;;;;;10444181;28;20245;-74
2022/10/20 08:07:11;;;;;;;17.13;12.40;;;14.00;99.90;;;;;;10442327;28;20709;-74
2022/10/20 08:12:12;;;;;;;16.80;13.27;;;13.70;99.90;;;;;;10445668;28;20249;-74
2022/10/20 08:17:12;;;;;;;15.17;12.57;;;13.40;99.90;;;;;;10442778;28;20298;-74
2022/10/20 08:22:18;;;;;;;17.63;13.10;;;13.10;99.90;;;;;;10440130;28;20218;-74
2022/10/20 08:27:18;;;;;;;19.47;13.73;;;13.10;99.90;;;;;;10438281;28;20719;-74
2022/10/20 08:32:19;;;;;;;17.60;12.20;;;13.10;99.90;;;;;;10444392;28;20219;-74
2022/10/20 08:37:20;;;;;;;15.93;12.67;;;13.30;99.90;;;;;;10442837;28;20311;-75
2022/10/20 08:42:20;;;;;;;13.83;12.27;;;14.00;99.90;;;;;;10439721;28;20218;-74
2022/10/20 08:47:26;;;;;;;15.77;12.10;;;15.60;99.90;;;;;;10440779;28;20689;-74
2022/10/20 08:52:27;;;;;;;18.03;12.43;;;15.90;99.90;;;;;;10439034;28;20223;-74
2022/10/20 08:57:33;;;;;;;16.40;12.73;;;15.10;99.90;;;;;;10444859;28;20589;-74
2022/10/20 09:02:34;;;;;;;18.87;12.77;;;14.80;99.90;;;;;;10441692;28;20220;-74
2022/10/20 09:07:37;;;;;;;15.33;11.60;;;15.60;99.90;;;;;;10445933;28;20220;-74
2022/10/20 09:12:41;;;;;;;15.80;11.40;;;17.50;99.90;;;;;;10442278;28;20242;-74
2022/10/20 09:17:50;;;;;;;15.90;11.30;;;18.30;99.90;;;;;;10442921;28;20295;-75
2022/10/20 09:22:51;;;;;;;17.07;10.30;;;19.10;99.90;;;;;;10444123;28;20330;-73
2022/10/20 09:27:54;;;;;;;15.53;11.10;;;19.40;99.90;;;;;;10444735;28;20225;-72
2022/10/20 09:32:55;;;;;;;14.17;11.33;;;20.20;99.90;;;;;;10449721;28;20624;-73
2022/10/20 09:37:57;;;;;;;15.27;10.97;;;20.40;99.90;;;;;;10451442;28;20221;-73
2022/10/20 09:43:08;;;;;;;15.87;11.10;;;19.40;99.90;;;;;;10451479;28;20262;-73
2022/10/20 09:48:27;;;;;;;14.40;11.30;;;18.80;99.90;;;;;;10447190;28;20274;-73
2022/10/20 09:53:55;;;;;;;16.30;12.33;;;17.20;99.90;;;;;;10448034;28;20228;-72
2022/10/20 09:58:57;;;;;;;17.57;12.43;;;16.20;99.90;;;;;;10447616;28;20232;-72
2022/10/20 10:04:00;;;;;;;14.90;12.03;;;15.80;99.90;;;;;;10448661;28;20796;-74
2022/10/20 10:09:02;;;;;;;18.53;13.30;;;15.80;99.90;;;;;;10444362;28;20691;-74
2022/10/20 10:14:04;;;;;;;19.13;12.67;;;15.40;99.90;;;;;;10443620;28;20224;-73
2022/10/20 10:19:05;;;;;;;18.50;13.60;;;15.00;99.90;;;;;;10446843;28;20227;-73
2022/10/20 10:24:24;;;;;;;20.40;13.63;;;14.60;99.90;;;;;;10447296;28;20228;-74
2022/10/20 10:29:31;;;;;;;16.33;13.27;;;14.50;99.90;;;;;;10443008;28;20243;-72
2022/10/20 10:35:19;;;;;;;16.70;13.00;;;14.40;99.90;;;;;;10441277;28;20225;-73
2022/10/20 10:40:41;;;;;;;17.40;13.27;;;14.30;99.90;;;;;;10447384;28;20223;-73
2022/10/20 10:45:45;;;;;;;15.03;12.80;;;14.30;99.90;;;;;;10444979;28;20736;-73
2022/10/20 10:51:17;;;;;;;20.20;14.03;;;14.30;99.90;;;;;;10448403;28;20236;-73
2022/10/20 10:56:39;;;;;;;16.63;13.10;;;14.20;99.90;;;;;;10446685;28;21012;-73
2022/10/20 11:01:51;;;;;;;17.87;12.63;;;14.60;99.90;;;;;;10438685;28;20234;-73
2022/10/20 11:07:03;;;;;;;13.97;11.10;;;15.40;99.90;;;;;;10447000;28;20279;-74
2022/10/20 11:12:41;;;;;;;15.13;12.03;;;16.20;99.90;;;;;;10447382;28;20230;-74
2022/10/20 11:17:54;;;;;;;16.40;11.93;;;16.10;99.90;;;;;;10438548;28;20223;-74
2022/10/20 11:23:20;;;;;;;18.53;12.07;;;15.60;99.90;;;;;;10433432;28;20250;-74
2022/10/20 11:28:43;;;;;;;16.67;12.13;;;15.50;99.90;;;;;;10444656;28;20345;-73
2022/10/20 11:33:49;;;;;;;18.20;12.47;;;15.50;99.90;;;;;;10441575;28;20318;-73
2022/10/20 11:38:53;;;;;;;14.63;11.43;;;15.50;99.90;;;;;;10447366;28;20224;-73
2022/10/20 11:44:29;;;;;;;14.47;11.20;;;15.70;99.90;;;;;;10448030;28;20227;-72
2022/10/20 11:49:32;;;;;;;14.73;12.17;;;15.60;99.90;;;;;;10436682;28;20314;-73
2022/10/20 11:54:51;;;;;;;19.20;11.80;;;15.60;99.90;;;;;;10440186;28;20227;-74
2022/10/20 12:00:17;;;;;;;17.10;12.20;;;15.60;99.90;;;;;;10444304;28;20225;-74
2022/10/20 12:05:47;;;;;;;16.43;12.07;;;15.60;99.90;;;;;;10428302;28;20219;-73
2022/10/20 12:11:06;;;;;;;18.97;13.30;;;15.30;99.90;;;;;;10440826;28;20252;-73
2022/10/20 12:16:07;;;;;;;14.07;12.47;;;15.30;99.90;;;;;;10428861;28;20223;-74
2022/10/20 12:21:10;;;;;;;19.13;14.00;;;15.20;99.90;;;;;;10439514;28;20231;-73
2022/10/20 12:26:37;;;;;;;16.00;13.20;;;15.40;99.90;;;;;;10437122;28;20238;-72
2022/10/20 12:32:19;;;;;;;16.90;13.43;;;15.50;99.90;;;;;;10443057;28;20267;-74
2022/10/20 12:37:23;;;;;;;15.13;12.67;;;15.20;99.90;;;;;;10441563;28;20277;-73
2022/10/20 12:42:45;;;;;;;20.17;13.40;;;15.10;99.90;;;;;;10443382;28;20314;-73
2022/10/20 12:47:55;;;;;;;19.83;13.53;;;15.00;99.90;;;;;;10443268;28;20747;-73
2022/10/20 12:53:08;;;;;;;16.57;13.30;;;15.00;99.90;;;;;;10444692;28;20595;-73
2022/10/20 12:58:33;;;;;;;15.10;11.77;;;15.00;99.90;;;;;;10434653;28;20282;-74
2022/10/20 13:03:35;;;;;;;18.10;12.57;;;15.20;99.90;;;;;;10435116;28;20227;-73
2022/10/20 13:08:36;;;;;;;18.93;13.23;;;15.20;99.90;;;;;;10441403;28;20231;-72
2022/10/20 13:13:48;;;;;;;22.33;12.67;;;15.30;99.90;;;;;;10450631;28;20234;-73
2022/10/20 13:18:51;;;;;;;15.33;12.53;;;15.40;99.90;;;;;;10447668;28;20269;-73
2022/10/20 13:24:14;;;;;;;15.13;13.10;;;15.50;99.90;;;;;;10444651;28;20586;-73
2022/10/20 13:29:31;;;;;;;18.57;13.27;;;15.50;99.90;;;;;;10446320;28;20671;-73
2022/10/20 13:34:45;;;;;;;16.80;12.47;;;15.50;99.90;;;;;;10450241;28;20270;-72
2022/10/20 13:40:12;;;;;;;20.93;13.13;;;15.40;99.90;;;;;;10428831;28;20219;-73
2022/10/20 13:45:24;;;;;;;15.10;13.07;;;15.30;99.90;;;;;;10432561;28;20216;-72
2022/10/20 13:50:56;;;;;;;17.83;12.97;;;15.20;99.90;;;;;;10403975;28;20339;-73
2022/10/20 13:56:06;;;;;;;19.60;14.30;;;15.10;99.90;;;;;;10403028;28;20913;-73
2022/10/20 14:01:15;;;;;;;18.90;14.23;;;15.10;99.90;;;;;;10408199;28;20676;-73
2022/10/20 14:06:31;;;;;;;20.53;13.87;;;15.00;99.90;;;;;;10432746;28;20289;-72
2022/10/20 14:11:31;;;;;;;17.47;14.07;;;14.80;99.90;;;;;;10450695;28;20328;-72
2022/10/20 14:16:32;;;;;;;18.87;13.40;;;14.70;99.90;;;;;;10447206;28;20302;-72
2022/10/20 14:21:50;;;;;;;18.33;13.87;;;14.70;99.90;;;;;;10447460;28;20226;-73
2022/10/20 14:26:51;;;;;;;17.20;12.77;;;14.70;99.90;;;;;;10439783;28;20230;-73
2022/10/20 14:31:52;;;;;;;17.03;13.20;;;14.60;99.90;;;;;;10447001;28;20262;-74
2022/10/20 14:36:54;;;;;;;17.63;13.93;;;14.60;99.90;;;;;;10449598;28;20305;-73
2022/10/20 14:41:57;;;;;;;20.90;14.57;;;14.70;99.90;;;;;;10448972;28;20223;-73
2022/10/20 14:47:04;;;;;;;18.00;15.17;;;14.70;99.90;;;;;;10444832;28;20219;-72
2022/10/20 14:52:19;;;;;;;20.93;15.20;;;14.60;99.90;;;;;;10446573;28;20231;-72
2022/10/20 14:57:19;;;;;;;18.17;13.77;;;14.60;99.90;;;;;;10446853;28;20308;-72
2022/10/20 15:02:23;;;;;;;19.73;15.37;;;14.60;99.90;;;;;;10448271;28;20256;-73
2022/10/20 15:07:31;;;;;;;21.37;15.27;;;14.50;99.90;;;;;;10441257;28;20709;-72
2022/10/20 15:12:41;;;;;;;17.00;14.27;;;14.50;99.90;;;;;;10436779;28;20224;-73
2022/10/20 15:17:43;;;;;;;20.23;16.00;;;14.50;99.90;;;;;;10445521;28;20272;-74
2022/10/20 15:22:44;;;;;;;19.33;16.60;;;14.40;99.90;;;;;;10437948;28;20219;-72
2022/10/20 15:27:46;;;;;;;24.50;17.27;;;14.40;99.90;;;;;;10444372;28;20227;-73
2022/10/20 15:32:47;;;;;;;22.73;17.13;;;14.30;99.90;;;;;;10438417;28;20229;-72
2022/10/20 15:37:52;;;;;;;20.50;16.63;;;14.20;99.90;;;;;;10447943;28;20229;-73
2022/10/20 15:42:53;;;;;;;21.33;17.47;;;14.20;99.90;;;;;;10443660;28;20924;-72
2022/10/20 15:47:54;;;;;;;21.30;17.57;;;14.10;99.90;;;;;;10431627;28;20222;-72
2022/10/20 15:52:54;;;;;;;19.70;17.20;;;14.00;99.90;;;;;;10445950;28;20321;-73
2022/10/20 15:57:55;;;;;;;21.43;18.00;;;13.90;99.90;;;;;;10441108;28;20221;-71
2022/10/20 16:02:56;;;;;;;22.93;17.90;;;13.90;99.90;;;;;;10445403;28;20229;-72
2022/10/20 16:07:57;;;;;;;21.47;17.47;;;13.90;99.90;;;;;;10436455;28;20233;-73
2022/10/20 16:12:58;;;;;;;23.47;17.83;;;13.90;99.90;;;;;;10423440;28;20223;-71
2022/10/20 16:17:58;;;;;;;22.93;18.37;;;13.90;99.90;;;;;;10431293;28;20218;-72
2022/10/20 16:23:00;;;;;;;26.17;18.30;;;13.90;99.90;;;;;;10430310;28;20228;-72
2022/10/20 16:28:01;;;;;;;21.07;18.20;;;13.90;99.90;;;;;;10433090;28;20253;-72
2022/10/20 16:33:01;;;;;;;22.07;18.37;;;13.90;99.90;;;;;;10427643;28;20226;-73
2022/10/20 16:38:02;;;;;;;20.97;17.57;;;13.80;99.90;;;;;;10431235;28;20210;-71
2022/10/20 16:43:03;;;;;;;21.57;16.60;;;13.80;99.90;;;;;;10437057;28;20224;-74
2022/10/20 16:48:03;;;;;;;25.10;19.53;;;13.80;99.90;;;;;;10423138;28;20226;-73
2022/10/20 16:53:04;;;;;;;23.00;20.10;;;13.80;99.90;;;;;;10438296;28;20225;-72
2022/10/20 16:58:04;;;;;;;25.33;20.40;;;13.70;99.90;;;;;;10437652;28;20224;-72
2022/10/20 17:03:05;;;;;;;23.70;19.63;;;13.70;99.90;;;;;;10429896;28;20281;-73
2022/10/20 17:08:06;;;;;;;23.37;19.83;;;13.70;99.90;;;;;;10438251;28;20647;-73
2022/10/20 17:13:06;;;;;;;26.30;20.03;;;13.70;99.90;;;;;;10429205;28;20651;-73
2022/10/20 17:18:08;;;;;;;24.90;19.53;;;13.70;99.90;;;;;;10430379;28;20246;-73
2022/10/20 17:23:09;;;;;;;21.43;17.87;;;13.70;99.90;;;;;;10432563;28;20223;-73
2022/10/20 17:28:09;;;;;;;22.33;17.77;;;13.80;99.90;;;;;;10430198;28;20830;-73
2022/10/20 17:33:12;;;;;;;18.50;16.47;;;13.80;99.90;;;;;;10434365;28;20786;-73
2022/10/20 17:38:13;;;;;;;19.33;16.37;;;13.90;99.90;;;;;;10414457;28;20857;-73
2022/10/20 17:43:14;;;;;;;16.70;15.00;;;14.00;99.90;;;;;;10429897;28;20234;-72
2022/10/20 17:48:14;;;;;;;20.80;17.67;;;14.00;99.90;;;;;;10431184;28;20228;-73
2022/10/20 17:53:15;;;;;;;24.37;20.10;;;14.10;99.90;;;;;;10443870;28;20225;-73
2022/10/20 17:58:15;;;;;;;30.23;21.60;;;14.00;99.90;;;;;;10437028;28;20225;-73
2022/10/20 18:03:16;;;;;;;29.43;23.10;;;14.00;99.90;;;;;;10441624;28;20222;-73
2022/10/20 18:08:17;;;;;;;35.13;25.10;;;13.80;99.90;;;;;;10434379;28;20319;-71
2022/10/20 18:13:17;;;;;;;30.57;24.53;;;13.60;99.90;;;;;;10428266;28;20227;-72
2022/10/20 18:18:19;;;;;;;34.73;26.10;;;13.50;99.90;;;;;;10428228;28;20214;-72
2022/10/20 18:23:19;;;;;;;27.43;23.77;;;13.50;99.90;;;;;;10436071;28;20690;-71
2022/10/20 18:28:21;;;;;;;34.77;26.03;;;13.50;99.90;;;;;;10428167;28;20230;-72
2022/10/20 18:33:22;;;;;;;33.93;23.70;;;13.50;99.90;;;;;;10435784;28;20226;-72
2022/10/20 18:38:23;;;;;;;32.73;22.80;;;13.60;99.90;;;;;;10443896;28;20744;-71
2022/10/20 18:43:23;;;;;;;28.60;22.07;;;13.60;99.90;;;;;;10441839;28;20217;-73
2022/10/20 18:48:24;;;;;;;31.30;23.13;;;13.70;99.90;;;;;;10442066;28;20267;-71
2022/10/20 18:53:25;;;;;;;29.87;24.67;;;13.70;99.90;;;;;;10440795;28;20301;-72
2022/10/20 18:58:27;;;;;;;28.47;23.73;;;13.60;99.90;;;;;;10432765;28;20222;-72
2022/10/20 19:03:33;;;;;;;35.30;25.83;;;13.50;99.90;;;;;;10438782;28;20233;-72
2022/10/20 19:08:35;;;;;;;30.43;24.20;;;13.50;99.90;;;;;;10439348;28;20259;-73
2022/10/20 19:13:36;;;;;;;30.07;24.50;;;13.50;99.90;;;;;;10425653;28;20307;-73
2022/10/20 19:18:40;;;;;;;28.67;23.87;;;13.40;99.90;;;;;;10442051;28;20219;-72
2022/10/20 19:23:46;;;;;;;29.97;24.50;;;13.30;99.90;;;;;;10441059;28;20225;-72
2022/10/20 19:28:53;;;;;;;30.70;24.93;;;13.20;99.90;;;;;;10432484;28;20342;-73
2022/10/20 19:33:58;;;;;;;30.00;25.57;;;13.20;99.90;;;;;;10440521;28;20934;-73
2022/10/20 19:39:04;;;;;;;35.87;26.97;;;13.20;99.90;;;;;;10438039;28;20304;-71
2022/10/20 19:44:06;;;;;;;35.17;26.93;;;13.20;99.90;;;;;;10435434;28;20223;-73
2022/10/20 19:49:07;;;;;;;35.37;28.60;;;13.10;99.90;;;;;;10431335;28;20710;-71
2022/10/20 19:54:08;;;;;;;37.93;28.50;;;13.10;99.90;;;;;;10438384;28;20233;-71
2022/10/20 19:59:12;;;;;;;33.97;27.07;;;13.10;99.90;;;;;;10430619;28;20564;-71
2022/10/20 20:04:13;;;;;;;34.50;26.10;;;13.00;99.90;;;;;;10430686;28;20270;-72
2022/10/20 20:09:14;;;;;;;35.27;25.47;;;13.00;99.90;;;;;;10444817;28;20652;-72
2022/10/20 20:14:17;;;;;;;33.00;25.77;;;13.00;99.90;;;;;;10444640;28;20238;-70
2022/10/20 20:19:18;;;;;;;27.97;22.37;;;13.00;99.90;;;;;;10440102;28;20214;-70
2022/10/20 20:24:18;;;;;;;31.27;24.87;;;13.00;99.90;;;;;;10437123;28;20645;-70
2022/10/20 20:29:19;;;;;;;25.90;22.37;;;13.00;99.90;;;;;;10442542;28;20272;-73
2022/10/20 20:34:20;;;;;;;24.87;21.30;;;13.00;99.90;;;;;;10424132;28;20639;-72
2022/10/20 20:39:20;;;;;;;27.63;23.47;;;13.00;99.90;;;;;;10446008;28;20242;-74
2022/10/20 20:44:21;;;;;;;31.20;24.97;;;13.00;99.90;;;;;;10445273;28;20228;-73
2022/10/20 20:49:22;;;;;;;25.53;22.00;;;13.10;99.90;;;;;;10433633;28;20218;-72
2022/10/20 20:54:23;;;;;;;27.00;23.30;;;13.10;99.90;;;;;;10433107;28;20225;-71
2022/10/20 20:59:23;;;;;;;26.73;21.97;;;13.10;99.90;;;;;;10424439;28;20325;-71
2022/10/20 21:04:24;;;;;;;25.27;22.27;;;13.10;99.90;;;;;;10433690;28;20913;-72
2022/10/20 21:09:25;;;;;;;25.87;22.23;;;13.10;99.90;;;;;;10443108;28;20326;-72
2022/10/20 21:14:26;;;;;;;24.37;21.33;;;13.20;99.90;;;;;;10438694;28;20237;-72
2022/10/20 21:19:26;;;;;;;24.43;20.50;;;13.20;99.90;;;;;;10443614;28;20223;-71
2022/10/20 21:24:27;;;;;;;21.73;19.43;;;13.20;99.90;;;;;;10438103;28;20268;-72
2022/10/20 21:29:28;;;;;;;24.20;19.90;;;13.20;99.90;;;;;;10450868;28;20227;-72
2022/10/20 21:34:28;;;;;;;27.93;22.53;;;13.30;99.90;;;;;;10444797;28;20601;-72
2022/10/20 21:39:29;;;;;;;29.93;22.20;;;13.30;99.90;;;;;;10450465;28;20219;-71
2022/10/20 21:44:29;;;;;;;29.43;22.87;;;13.20;99.90;;;;;;10449674;28;20226;-72
2022/10/20 21:49:32;;;;;;;29.10;21.83;;;13.20;99.90;;;;;;10449969;28;20237;-72
2022/10/20 21:54:33;;;;;;;25.47;20.57;;;13.20;99.90;;;;;;10442399;28;20274;-71
2022/10/20 21:59:33;;;;;;;22.10;18.87;;;13.20;99.90;;;;;;10441392;28;20219;-71
2022/10/20 22:04:34;;;;;;;23.83;20.73;;;13.20;99.90;;;;;;10445832;28;20633;-72
2022/10/20 22:09:34;;;;;;;21.70;18.60;;;13.20;99.90;;;;;;10446951;28;20223;-72
2022/10/20 22:14:35;;;;;;;23.40;20.17;;;13.20;99.90;;;;;;10449455;28;20222;-73
2022/10/20 22:19:35;;;;;;;29.53;20.40;;;13.10;99.90;;;;;;10443513;28;20303;-74
2022/10/20 22:24:36;;;;;;;25.30;20.97;;;13.10;99.90;;;;;;10438719;28;20578;-72
2022/10/20 22:29:37;;;;;;;27.50;20.13;;;13.10;99.90;;;;;;10451417;28;20696;-72
2022/10/20 22:34:37;;;;;;;27.53;20.57;;;13.10;99.90;;;;;;10444488;28;20633;-72
2022/10/20 22:39:38;;;;;;;26.27;19.53;;;13.20;99.90;;;;;;10449744;28;20214;-72
2022/10/20 22:44:38;;;;;;;21.53;17.80;;;13.20;99.90;;;;;;10450381;28;20712;-73
2022/10/20 22:49:39;;;;;;;21.97;17.93;;;13.30;99.90;;;;;;10442814;28;20604;-72
2022/10/20 22:54:39;;;;;;;20.13;17.93;;;13.30;99.90;;;;;;10438077;28;20234;-72
2022/10/20 22:59:40;;;;;;;24.53;18.20;;;13.30;99.90;;;;;;10439437;28;20296;-73
2022/10/20 23:04:40;;;;;;;23.97;18.77;;;13.30;99.90;;;;;;10448798;28;20294;-72
2022/10/20 23:09:41;;;;;;;22.73;17.47;;;13.30;99.90;;;;;;10448456;28;20677;-72
2022/10/20 23:14:42;;;;;;;24.27;17.37;;;13.30;99.90;;;;;;10444046;28;20224;-72
2022/10/20 23:19:42;;;;;;;22.77;17.43;;;13.30;99.90;;;;;;10442040;28;20443;-71
2022/10/20 23:24:43;;;;;;;20.00;16.37;;;13.30;99.90;;;;;;10433971;28;20972;-71
2022/10/20 23:29:43;;;;;;;25.57;18.30;;;13.40;99.90;;;;;;10439997;28;20277;-72
2022/10/20 23:34:44;;;;;;;22.07;17.97;;;13.40;99.90;;;;;;10445833;28;20230;-72
2022/10/20 23:39:45;;;;;;;24.53;18.33;;;13.40;99.90;;;;;;10441614;28;20253;-72
2022/10/20 23:44:46;;;;;;;19.97;17.10;;;13.30;99.90;;;;;;10448534;28;20656;-72
2022/10/20 23:49:46;;;;;;;21.60;17.33;;;13.40;99.90;;;;;;10447298;28;20226;-72
2022/10/20 23:54:48;;;;;;;27.03;19.13;;;13.40;99.90;;;;;;10434612;28;20218;-73
2022/10/20 23:59:51;;;;;;;23.10;19.10;;;13.40;99.90;;;;;;10440154;28;20703;-72
